Time;durP1;ratioP1;P1;durP2;ratioP2;P2;SDS_P1;SDS_P2;PMS_P1;PMS_P2;Temp;Humidity;BMP_temperature;BMP_pressure;BME280_temperature;BME280_humidity;BME280_pressure;Samples;Min_cycle;Max_cycle;Signal;HPM_P1;HPM_P2
2020/12/10 00:00:54;;;;;;;;;;;22.80;66.40;;;;;;5036207;28;19917;-71
2020/12/10 00:03:21;;;;;;;;;;;22.70;66.40;;;;;;5035676;28;19917;-70
2020/12/10 00:05:47;;;;;;;;;;;22.70;66.40;;;;;;5037558;28;20269;-70
2020/12/10 00:08:13;;;;;;;;;;;22.80;66.50;;;;;;5036574;28;19913;-70
2020/12/10 00:10:39;;;;;;;;;;;22.70;66.50;;;;;;5039496;28;19924;-69
2020/12/10 00:13:05;;;;;;;;;;;22.70;66.50;;;;;;5033669;28;19917;-69
2020/12/10 00:15:32;;;;;;;;;;;22.70;66.50;;;;;;5042887;28;20451;-70
2020/12/10 00:17:58;;;;;;;;;;;22.70;66.60;;;;;;5032904;28;20001;-68
2020/12/10 00:20:24;;;;;;;;;;;22.70;66.60;;;;;;5039798;28;19917;-69
2020/12/10 00:22:50;;;;;;;;;;;22.60;66.60;;;;;;5036493;28;19920;-71
2020/12/10 00:25:16;;;;;;;;;;;22.60;66.60;;;;;;5036562;28;19952;-69
2020/12/10 00:27:42;;;;;;;;;;;22.60;66.60;;;;;;5038663;28;20302;-68
2020/12/10 00:30:09;;;;;;;;;;;22.60;66.70;;;;;;5036800;28;19948;-68
2020/12/10 00:32:35;;;;;;;;;;;22.60;66.70;;;;;;5037689;28;20460;-68
2020/12/10 00:35:02;;;;;;;;;;;22.60;66.70;;;;;;5038857;28;20300;-70
2020/12/10 00:37:28;;;;;;;;;;;22.60;66.70;;;;;;5031870;28;19913;-68
2020/12/10 00:39:55;;;;;;;;;;;22.60;66.70;;;;;;5032820;28;20284;-70
2020/12/10 00:42:21;;;;;;;;;;;22.60;66.70;;;;;;5034239;28;19912;-71
2020/12/10 00:44:47;;;;;;;;;;;22.50;66.70;;;;;;5037069;28;19921;-68
2020/12/10 00:47:17;;;;;;;;;;;22.50;66.70;;;;;;5040805;28;19975;-70
2020/12/10 00:49:43;;;;;;;;;;;22.50;66.70;;;;;;5032573;28;20418;-69
2020/12/10 00:52:09;;;;;;;;;;;22.50;66.70;;;;;;5036561;28;19972;-68
2020/12/10 00:54:35;;;;;;;;;;;22.50;66.70;;;;;;5035325;28;19913;-70
2020/12/10 00:57:01;;;;;;;;;;;22.50;66.70;;;;;;5036422;28;20434;-71
2020/12/10 00:59:27;;;;;;;;;;;22.50;66.70;;;;;;5034995;28;20004;-71
2020/12/10 01:01:53;;;;;;;;;;;22.50;66.80;;;;;;5031801;28;20099;-70
2020/12/10 01:04:19;;;;;;;;;;;22.40;66.80;;;;;;5035281;28;19913;-71
2020/12/10 01:06:45;;;;;;;;;;;22.50;66.80;;;;;;5037547;28;19921;-71
2020/12/10 01:09:11;;;;;;;;;;;22.40;66.80;;;;;;5031123;28;19936;-70
2020/12/10 01:11:38;;;;;;;;;;;22.40;66.80;;;;;;5032616;28;19929;-70
2020/12/10 01:14:04;;;;;;;;;;;22.40;66.90;;;;;;5033915;28;19917;-71
2020/12/10 01:16:31;;;;;;;;;;;22.40;66.90;;;;;;5032605;28;20439;-68
2020/12/10 01:18:57;;;;;;;;;;;22.40;66.90;;;;;;5037284;28;19913;-67
2020/12/10 01:21:29;;;;;;;;;;;22.40;67.00;;;;;;5029911;28;19987;-68
2020/12/10 01:23:56;;;;;;;;;;;22.30;67.00;;;;;;5032968;28;20295;-70
2020/12/10 01:26:23;;;;;;;;;;;22.40;67.00;;;;;;5035707;28;19913;-68
2020/12/10 01:28:50;;;;;;;;;;;22.30;67.00;;;;;;5032487;28;19928;-67
2020/12/10 01:31:16;;;;;;;;;;;22.30;67.10;;;;;;5034247;28;19925;-68
2020/12/10 01:33:42;;;;;;;;;;;22.30;67.10;;;;;;5034716;28;20334;-68
2020/12/10 01:36:08;;;;;;;;;;;22.30;67.10;;;;;;5036232;28;20059;-68
2020/12/10 01:38:34;;;;;;;;;;;22.30;67.20;;;;;;5040165;28;20423;-68
2020/12/10 01:41:00;;;;;;;;;;;22.30;67.10;;;;;;5034981;28;19936;-68
2020/12/10 01:43:27;;;;;;;;;;;22.30;67.20;;;;;;5034250;28;19925;-68
2020/12/10 01:45:53;;;;;;;;;;;22.30;67.20;;;;;;5036284;28;20004;-68
2020/12/10 01:48:19;;;;;;;;;;;22.20;67.20;;;;;;5037108;28;19913;-69
2020/12/10 01:50:45;;;;;;;;;;;22.20;67.20;;;;;;5036318;28;19948;-68
2020/12/10 01:53:11;;;;;;;;;;;22.20;67.30;;;;;;5032883;28;19948;-67
2020/12/10 01:55:37;;;;;;;;;;;22.20;67.30;;;;;;5034192;28;19920;-68
2020/12/10 01:58:03;;;;;;;;;;;22.20;67.40;;;;;;5031206;28;19971;-69
2020/12/10 02:00:29;;;;;;;;;;;22.20;67.40;;;;;;5034699;28;19917;-70
2020/12/10 02:02:56;;;;;;;;;;;22.20;67.40;;;;;;5033368;28;19920;-68
2020/12/10 02:05:22;;;;;;;;;;;22.20;67.40;;;;;;5033484;28;19920;-68
2020/12/10 02:07:48;;;;;;;;;;;22.20;67.50;;;;;;5037049;28;19928;-68
2020/12/10 02:10:15;;;;;;;;;;;22.20;67.50;;;;;;5037468;28;19920;-69
2020/12/10 02:12:41;;;;;;;;;;;22.20;67.50;;;;;;5037889;28;19970;-70
2020/12/10 02:15:07;;;;;;;;;;;22.10;67.50;;;;;;5038095;28;19920;-68
2020/12/10 02:17:34;;;;;;;;;;;22.10;67.50;;;;;;5036317;28;19913;-68
2020/12/10 02:20:00;;;;;;;;;;;22.10;67.60;;;;;;5032951;28;20372;-68
2020/12/10 02:22:26;;;;;;;;;;;22.10;67.60;;;;;;5034680;28;20071;-68
2020/12/10 02:24:52;;;;;;;;;;;22.10;67.70;;;;;;5033157;28;19960;-68
2020/12/10 02:27:18;;;;;;;;;;;22.10;67.70;;;;;;5033433;28;20400;-67
2020/12/10 02:29:44;;;;;;;;;;;22.00;67.70;;;;;;5038606;28;19983;-69
2020/12/10 02:32:10;;;;;;;;;;;22.00;67.70;;;;;;5038907;28;20330;-69
2020/12/10 02:34:36;;;;;;;;;;;22.10;67.80;;;;;;5043515;28;20002;-69
2020/12/10 02:37:02;;;;;;;;;;;22.00;67.70;;;;;;5034061;28;20185;-71
2020/12/10 02:39:29;;;;;;;;;;;22.00;67.70;;;;;;5042132;28;19920;-69
2020/12/10 02:41:55;;;;;;;;;;;22.00;67.70;;;;;;5034070;28;19917;-72
2020/12/10 02:44:21;;;;;;;;;;;22.00;67.70;;;;;;5033951;28;20288;-71
2020/12/10 02:46:47;;;;;;;;;;;22.00;67.70;;;;;;5035673;28;19920;-70
2020/12/10 02:49:13;;;;;;;;;;;22.00;67.70;;;;;;5035822;28;19920;-72
2020/12/10 02:51:43;;;;;;;;;;;22.00;67.80;;;;;;5040611;28;19929;-71
2020/12/10 02:54:09;;;;;;;;;;;21.90;67.70;;;;;;5040985;28;19924;-71
2020/12/10 02:56:35;;;;;;;;;;;21.90;67.80;;;;;;5040889;28;19971;-71
2020/12/10 02:59:01;;;;;;;;;;;21.90;67.70;;;;;;5039963;28;19919;-69
2020/12/10 03:01:27;;;;;;;;;;;21.90;67.70;;;;;;5037364;28;19963;-72
2020/12/10 03:03:53;;;;;;;;;;;21.90;67.80;;;;;;5040384;28;20280;-71
2020/12/10 03:06:19;;;;;;;;;;;21.90;67.80;;;;;;5042010;28;19913;-72
2020/12/10 03:08:45;;;;;;;;;;;21.90;67.70;;;;;;5037630;28;19923;-68
2020/12/10 03:11:11;;;;;;;;;;;21.90;67.80;;;;;;5033057;28;19917;-70
2020/12/10 03:13:38;;;;;;;;;;;21.80;67.70;;;;;;5039552;28;19944;-71
2020/12/10 03:16:05;;;;;;;;;;;21.90;67.80;;;;;;5033524;28;20048;-71
2020/12/10 03:18:31;;;;;;;;;;;21.80;67.80;;;;;;5038965;28;19913;-71
2020/12/10 03:20:57;;;;;;;;;;;21.80;67.80;;;;;;5043387;28;19963;-72
2020/12/10 03:23:23;;;;;;;;;;;21.80;67.80;;;;;;5035798;28;19916;-69
2020/12/10 03:25:50;;;;;;;;;;;21.80;67.80;;;;;;5035889;28;19913;-73
2020/12/10 03:28:16;;;;;;;;;;;21.70;67.80;;;;;;5039258;28;19913;-70
2020/12/10 03:30:42;;;;;;;;;;;21.80;67.80;;;;;;5037847;28;20339;-72
2020/12/10 03:33:08;;;;;;;;;;;21.70;67.90;;;;;;5037138;28;19928;-71
2020/12/10 03:35:34;;;;;;;;;;;21.70;67.90;;;;;;5040076;28;19917;-71
2020/12/10 03:38:00;;;;;;;;;;;21.70;67.90;;;;;;5036267;28;19964;-71
2020/12/10 03:40:27;;;;;;;;;;;21.70;68.00;;;;;;5037485;28;20020;-68
2020/12/10 03:42:53;;;;;;;;;;;21.70;68.00;;;;;;5038432;28;19948;-71
2020/12/10 03:45:19;;;;;;;;;;;21.70;68.00;;;;;;5032698;28;19920;-71
2020/12/10 03:47:45;;;;;;;;;;;21.70;68.10;;;;;;5040252;28;20661;-72
2020/12/10 03:50:11;;;;;;;;;;;21.70;68.20;;;;;;5036631;28;19913;-69
2020/12/10 03:52:37;;;;;;;;;;;21.60;68.10;;;;;;5035409;28;20498;-71
2020/12/10 03:55:04;;;;;;;;;;;21.70;68.20;;;;;;5035889;28;20015;-68
2020/12/10 03:57:30;;;;;;;;;;;21.60;67.90;;;;;;5034631;28;19913;-68
2020/12/10 03:59:56;;;;;;;;;;;21.60;68.00;;;;;;5042908;28;20497;-67
2020/12/10 04:02:22;;;;;;;;;;;21.60;67.90;;;;;;5036154;28;19975;-67
2020/12/10 04:04:49;;;;;;;;;;;21.60;67.90;;;;;;5039898;28;19920;-71
2020/12/10 04:07:15;;;;;;;;;;;21.60;67.90;;;;;;5037558;28;19923;-69
2020/12/10 04:09:41;;;;;;;;;;;21.60;67.80;;;;;;5037798;28;19913;-68
2020/12/10 04:12:07;;;;;;;;;;;21.60;67.70;;;;;;5040382;28;20482;-67
2020/12/10 04:14:33;;;;;;;;;;;21.60;67.50;;;;;;5035488;28;19913;-69
2020/12/10 04:16:59;;;;;;;;;;;21.60;67.40;;;;;;5035441;28;19913;-68
2020/12/10 04:19:25;;;;;;;;;;;21.50;67.20;;;;;;5035906;28;19920;-68
2020/12/10 04:21:51;;;;;;;;;;;21.60;67.10;;;;;;5038526;28;20484;-68
2020/12/10 04:24:18;;;;;;;;;;;21.60;67.00;;;;;;5038934;28;19917;-68
2020/12/10 04:26:44;;;;;;;;;;;21.60;66.90;;;;;;5040383;28;19917;-67
2020/12/10 04:29:13;;;;;;;;;;;21.60;66.80;;;;;;5040512;28;19999;-69
2020/12/10 04:31:41;;;;;;;;;;;21.60;66.70;;;;;;5043400;28;19932;-68
2020/12/10 04:34:07;;;;;;;;;;;21.50;66.60;;;;;;5038497;28;19928;-68
2020/12/10 04:36:33;;;;;;;;;;;21.50;66.70;;;;;;5033350;28;19920;-67
2020/12/10 04:39:19;;;;;;;;;;;21.50;66.70;;;;;;5033298;28;19920;-71
2020/12/10 04:42:08;;;;;;;;;;;21.50;66.80;;;;;;5037744;28;20586;-71
2020/12/10 04:44:54;;;;;;;;;;;21.50;66.90;;;;;;5034402;28;19921;-74
2020/12/10 04:47:40;;;;;;;;;;;21.50;67.20;;;;;;5031511;28;19913;-72
2020/12/10 04:50:27;;;;;;;;;;;21.60;67.50;;;;;;5039848;28;21369;-72
2020/12/10 04:53:13;;;;;;;;;;;21.60;67.90;;;;;;5036896;28;19921;-70
2020/12/10 04:55:59;;;;;;;;;;;21.60;68.10;;;;;;5036261;28;20360;-69
2020/12/10 04:58:45;;;;;;;;;;;21.50;68.10;;;;;;5034438;28;20412;-68
2020/12/10 05:01:31;;;;;;;;;;;21.60;68.20;;;;;;5035626;28;19920;-68
2020/12/10 05:04:17;;;;;;;;;;;21.60;68.10;;;;;;5031170;28;19940;-68
2020/12/10 05:07:09;;;;;;;;;;;21.60;68.20;;;;;;5037888;28;20373;-68
2020/12/10 05:09:54;;;;;;;;;;;21.60;68.30;;;;;;5037281;28;20418;-68
2020/12/10 05:12:40;;;;;;;;;;;21.60;68.30;;;;;;5033591;28;20262;-68
2020/12/10 05:15:26;;;;;;;;;;;21.60;68.30;;;;;;5038943;28;19963;-69
2020/12/10 05:18:12;;;;;;;;;;;21.70;68.40;;;;;;5031611;28;19940;-68
2020/12/10 05:20:41;;;;;;;;;;;21.70;68.40;;;;;;5036071;28;19919;-69
2020/12/10 05:23:27;;;;;;;;;;;21.70;68.30;;;;;;5035731;28;19921;-69
2020/12/10 05:26:13;;;;;;;;;;;21.70;68.40;;;;;;5034363;28;20292;-69
2020/12/10 05:31:43;;;;;;;;;;;21.80;68.40;;;;;;5030648;28;20405;-70
2020/12/10 05:34:28;;;;;;;;;;;21.80;68.30;;;;;;5035876;28;19917;-71
2020/12/10 05:37:14;;;;;;;;;;;21.80;68.40;;;;;;5029808;28;19931;-69
2020/12/10 05:40:00;;;;;;;;;;;21.80;68.30;;;;;;5036262;28;19913;-70
2020/12/10 05:42:55;;;;;;;;;;;21.80;68.30;;;;;;5034258;28;20466;-69
2020/12/10 05:45:41;;;;;;;;;;;21.90;68.40;;;;;;5041804;28;20320;-70
2020/12/10 05:48:27;;;;;;;;;;;21.90;68.30;;;;;;5038713;28;19913;-70
2020/12/10 05:51:13;;;;;;;;;;;22.00;68.40;;;;;;5036126;28;19921;-70
2020/12/10 05:53:59;;;;;;;;;;;22.00;68.40;;;;;;5037476;28;19916;-70
2020/12/10 05:56:45;;;;;;;;;;;22.00;68.30;;;;;;5035306;28;19920;-70
2020/12/10 05:59:31;;;;;;;;;;;22.10;68.30;;;;;;5033768;28;20319;-69
2020/12/10 06:02:16;;;;;;;;;;;22.10;68.10;;;;;;5033208;28;19912;-70
2020/12/10 06:05:02;;;;;;;;;;;22.10;68.00;;;;;;5033743;28;19935;-70
2020/12/10 06:07:54;;;;;;;;;;;22.20;67.90;;;;;;5036985;28;20404;-69
2020/12/10 06:10:40;;;;;;;;;;;22.20;67.70;;;;;;5036718;28;20284;-69
2020/12/10 06:13:26;;;;;;;;;;;22.30;67.60;;;;;;5038970;28;22026;-70
2020/12/10 06:16:12;;;;;;;;;;;22.30;67.40;;;;;;5038478;28;20486;-69
2020/12/10 06:19:04;;;;;;;;;;;22.30;67.10;;;;;;5033363;28;19952;-69
2020/12/10 06:22:05;;;;;;;;;;;22.30;66.90;;;;;;5035370;28;19956;-69
2020/12/10 06:24:54;;;;;;;;;;;22.40;66.70;;;;;;5036250;28;20284;-67
2020/12/10 06:27:40;;;;;;;;;;;22.40;66.40;;;;;;5034475;28;19920;-70
2020/12/10 06:30:38;;;;;;;;;;;22.40;66.10;;;;;;5033600;28;19909;-70
2020/12/10 06:33:24;;;;;;;;;;;22.50;66.00;;;;;;5037654;28;19921;-70
2020/12/10 06:36:09;;;;;;;;;;;22.50;65.70;;;;;;5034744;28;19917;-70
2020/12/10 06:38:43;;;;;;;;;;;22.60;65.50;;;;;;5035383;28;19943;-70
2020/12/10 06:41:09;;;;;;;;;;;22.60;65.20;;;;;;5033865;28;19935;-70
2020/12/10 06:43:36;;;;;;;;;;;22.60;65.00;;;;;;5030525;28;19921;-70
2020/12/10 06:46:03;;;;;;;;;;;22.60;64.80;;;;;;5031277;28;20011;-71
2020/12/10 06:49:01;;;;;;;;;;;22.70;64.60;;;;;;5039933;28;20284;-70
2020/12/10 06:51:27;;;;;;;;;;;22.70;64.50;;;;;;5005765;28;19931;-71
2020/12/10 06:53:59;;;;;;;;;;;22.70;64.40;;;;;;5036273;28;19925;-72
2020/12/10 06:56:25;;;;;;;;;;;22.80;64.30;;;;;;5035102;28;19920;-71
2020/12/10 06:58:54;;;;;;;;;;;22.80;64.20;;;;;;5035623;28;19917;-70
2020/12/10 07:01:26;;;;;;;;;;;22.80;64.00;;;;;;5033042;28;20004;-71
2020/12/10 07:04:07;;;;;;;;;;;22.90;63.90;;;;;;5050432;28;20394;-71
2020/12/10 07:06:34;;;;;;;;;;;22.90;63.70;;;;;;5031281;28;19956;-71
2020/12/10 07:09:01;;;;;;;;;;;22.90;63.50;;;;;;5035413;28;19913;-71
2020/12/10 07:11:34;;;;;;;;;;;22.90;63.40;;;;;;5035911;28;20031;-71
2020/12/10 07:14:01;;;;;;;;;;;23.00;63.40;;;;;;5039019;28;19913;-70
2020/12/10 07:16:32;;;;;;;;;;;23.00;63.30;;;;;;5037661;28;19920;-70
2020/12/10 07:18:58;;;;;;;;;;;23.10;63.20;;;;;;5036343;28;19921;-70
2020/12/10 07:21:24;;;;;;;;;;;23.00;63.10;;;;;;5040173;28;19963;-70
2020/12/10 07:23:51;;;;;;;;;;;23.10;62.90;;;;;;5039473;28;19917;-70
2020/12/10 07:26:17;;;;;;;;;;;23.10;62.70;;;;;;5040903;28;19913;-71
2020/12/10 07:28:46;;;;;;;;;;;23.10;62.60;;;;;;5036817;28;20016;-71
2020/12/10 07:31:14;;;;;;;;;;;23.20;62.50;;;;;;5034956;28;19961;-71
2020/12/10 07:33:40;;;;;;;;;;;23.20;62.40;;;;;;5037231;28;19978;-71
2020/12/10 07:36:07;;;;;;;;;;;23.30;62.30;;;;;;5041099;28;19944;-69
2020/12/10 07:38:33;;;;;;;;;;;23.30;62.10;;;;;;5038261;28;19917;-74
2020/12/10 07:40:59;;;;;;;;;;;23.30;61.70;;;;;;5036991;28;19917;-72
2020/12/10 07:43:28;;;;;;;;;;;23.40;61.40;;;;;;5042257;28;20379;-70
2020/12/10 07:45:54;;;;;;;;;;;23.40;61.20;;;;;;5034882;28;19913;-72
2020/12/10 07:48:21;;;;;;;;;;;23.40;61.00;;;;;;5035887;28;19952;-71
2020/12/10 07:50:47;;;;;;;;;;;23.50;60.60;;;;;;5042413;28;19920;-71
2020/12/10 07:53:14;;;;;;;;;;;23.50;60.40;;;;;;5039961;28;19919;-71
2020/12/10 07:55:44;;;;;;;;;;;23.60;60.00;;;;;;5037707;28;20509;-71
2020/12/10 07:58:10;;;;;;;;;;;23.60;59.80;;;;;;5039011;28;19964;-71
2020/12/10 08:00:37;;;;;;;;;;;23.70;59.50;;;;;;5037723;28;19917;-71
2020/12/10 08:03:19;;;;;;;;;;;23.70;59.30;;;;;;5040097;28;20000;-71
2020/12/10 08:05:57;;;;;;;;;;;23.80;59.10;;;;;;5034729;28;19944;-70
2020/12/10 08:08:30;;;;;;;;;;;23.90;58.90;;;;;;5037664;28;19920;-71
2020/12/10 08:11:05;;;;;;;;;;;23.90;58.80;;;;;;5040665;28;19917;-71
2020/12/10 08:13:31;;;;;;;;;;;24.00;58.60;;;;;;5038789;28;19917;-71
2020/12/10 08:16:04;;;;;;;;;;;24.00;58.50;;;;;;5040500;28;19913;-71
2020/12/10 08:18:30;;;;;;;;;;;24.00;58.30;;;;;;5031963;28;19967;-70
2020/12/10 08:20:57;;;;;;;;;;;24.10;58.20;;;;;;5041588;28;19996;-71
2020/12/10 08:23:23;;;;;;;;;;;24.20;58.00;;;;;;5038435;28;19917;-71
2020/12/10 08:26:08;;;;;;;;;;;24.20;58.00;;;;;;5041490;28;19913;-71
2020/12/10 08:28:34;;;;;;;;;;;24.30;57.70;;;;;;5036175;28;20434;-71
2020/12/10 08:31:00;;;;;;;;;;;24.30;57.60;;;;;;5039356;28;19925;-70
2020/12/10 08:33:33;;;;;;;;;;;24.40;57.70;;;;;;5037123;28;20387;-71
2020/12/10 08:35:59;;;;;;;;;;;24.40;57.50;;;;;;5035879;28;19913;-71
2020/12/10 08:38:26;;;;;;;;;;;24.40;57.50;;;;;;5040514;28;20369;-73
2020/12/10 08:41:40;;;;;;;7.82;2.13;;;24.50;56.90;;;;;;5065031;28;20395;-70
2020/12/10 08:44:08;;;;;;;10.60;3.20;;;24.60;56.90;;;;;;5062761;28;20057;-70
2020/12/10 08:46:37;;;;;;;6.45;2.13;;;24.60;56.80;;;;;;5063568;28;20016;-70
2020/12/10 08:49:19;;;;;;;6.78;1.77;;;24.60;56.80;;;;;;5064726;28;20017;-70
2020/12/10 08:51:47;;;;;;;9.55;3.78;;;24.60;56.60;;;;;;5064124;28;20063;-71
2020/12/10 08:54:15;;;;;;;7.60;2.90;;;24.60;56.50;;;;;;5065377;28;20024;-69
2020/12/10 08:56:42;;;;;;;7.78;2.88;;;24.70;56.50;;;;;;5062636;28;20055;-70
2020/12/10 08:59:09;;;;;;;6.40;1.98;;;24.70;56.40;;;;;;5063360;28;20108;-70
2020/12/10 09:01:36;;;;;;;6.28;2.00;;;24.80;56.40;;;;;;5065660;28;20029;-70
2020/12/10 09:04:03;;;;;;;10.10;2.30;;;24.80;56.40;;;;;;5064234;28;20025;-70
2020/12/10 09:06:37;;;;;;;9.48;3.05;;;24.90;56.40;;;;;;5063475;28;20665;-70
2020/12/10 09:09:05;;;;;;;8.65;2.28;;;25.00;56.30;;;;;;5062720;28;20485;-70
2020/12/10 09:11:32;;;;;;;7.30;2.58;;;25.00;56.20;;;;;;5065153;28;20025;-70
2020/12/10 09:13:59;;;;;;;8.93;2.88;;;25.00;56.10;;;;;;5061193;28;20028;-70
2020/12/10 09:16:27;;;;;;;5.88;2.70;;;25.00;56.00;;;;;;5063908;28;20021;-70
2020/12/10 09:18:54;;;;;;;5.15;2.55;;;25.10;56.00;;;;;;5065344;28;20036;-70
2020/12/10 09:21:20;;;;;;;7.50;2.75;;;25.20;56.00;;;;;;5062521;28;20086;-70
2020/12/10 09:23:47;;;;;;;7.30;2.40;;;25.20;55.80;;;;;;5064907;28;20025;-70
2020/12/10 09:26:15;;;;;;;9.93;1.98;;;25.20;55.50;;;;;;5063289;28;20375;-70
2020/12/10 09:28:43;;;;;;;8.93;2.33;;;25.30;55.30;;;;;;5064954;28;20102;-71
2020/12/10 09:31:10;;;;;;;7.97;2.38;;;25.30;55.00;;;;;;5064178;28;20036;-71
2020/12/10 09:33:37;;;;;;;7.00;2.45;;;25.40;55.00;;;;;;5064708;28;20082;-71
2020/12/10 09:36:03;;;;;;;5.90;1.83;;;25.40;54.70;;;;;;5063263;28;20041;-71
2020/12/10 09:38:30;;;;;;;5.88;2.60;;;25.50;54.60;;;;;;5062813;28;20029;-71
2020/12/10 09:40:58;;;;;;;6.55;1.83;;;25.50;54.40;;;;;;5063898;28;20045;-71
2020/12/10 09:43:24;;;;;;;4.82;1.85;;;25.60;54.40;;;;;;5063175;28;20024;-71
2020/12/10 09:45:58;;;;;;;8.60;2.25;;;25.60;54.10;;;;;;5064710;28;20025;-71
2020/12/10 09:48:25;;;;;;;5.90;1.60;;;25.70;54.00;;;;;;5060726;28;20078;-72
2020/12/10 09:50:52;;;;;;;3.60;1.83;;;25.70;53.80;;;;;;5061847;28;20025;-72
2020/12/10 09:53:27;;;;;;;6.25;2.20;;;25.80;53.70;;;;;;5050797;28;20542;-72
2020/12/10 09:58:21;;;;;;;5.55;1.98;;;25.90;53.20;;;;;;5051336;28;20488;-72
2020/12/10 10:00:51;;;;;;;7.88;1.80;;;26.00;52.90;;;;;;5049561;28;20510;-73
2020/12/10 10:03:21;;;;;;;3.15;1.98;;;26.00;52.50;;;;;;5051398;28;20024;-72
2020/12/10 10:05:47;;;;;;;5.97;1.42;;;26.00;52.40;;;;;;5049352;28;20056;-72
2020/12/10 10:08:14;;;;;;;4.75;2.00;;;26.10;52.60;;;;;;5050174;28;20029;-72
2020/12/10 10:10:41;;;;;;;5.85;1.85;;;26.10;52.60;;;;;;5050980;28;20111;-72
2020/12/10 10:13:08;;;;;;;7.28;2.30;;;26.10;52.40;;;;;;5049653;28;20031;-72
2020/12/10 10:15:34;;;;;;;7.60;1.40;;;26.20;52.20;;;;;;5049990;28;20025;-72
2020/12/10 10:18:01;;;;;;;9.07;2.10;;;26.20;52.00;;;;;;5048778;28;20472;-72
2020/12/10 10:20:27;;;;;;;5.97;1.50;;;26.30;51.90;;;;;;5051163;28;20055;-72
2020/12/10 10:22:54;;;;;;;6.00;1.90;;;26.40;52.10;;;;;;5048889;28;20518;-72
2020/12/10 10:25:20;;;;;;;4.10;1.52;;;26.40;52.10;;;;;;5050461;28;20131;-72
2020/12/10 10:27:47;;;;;;;6.28;1.90;;;26.40;52.10;;;;;;5047021;28;20079;-72
2020/12/10 10:30:13;;;;;;;6.88;1.85;;;26.40;52.10;;;;;;5049350;28;20013;-72
2020/12/10 10:32:40;;;;;;;6.00;2.17;;;26.50;52.20;;;;;;5050492;28;20029;-72
2020/12/10 10:35:06;;;;;;;5.03;2.25;;;26.50;52.20;;;;;;5049144;28;20032;-72
2020/12/10 10:37:33;;;;;;;6.57;2.13;;;26.50;52.00;;;;;;5051063;28;20032;-72
2020/12/10 10:39:59;;;;;;;6.30;2.85;;;26.50;52.10;;;;;;5048497;28;20103;-73
2020/12/10 10:42:26;;;;;;;4.68;1.38;;;26.60;52.10;;;;;;5050025;28;20025;-72
2020/12/10 10:44:53;;;;;;;5.18;1.40;;;26.60;52.00;;;;;;5045870;28;20032;-73
2020/12/10 10:47:20;;;;;;;2.80;1.17;;;26.60;51.90;;;;;;5049769;28;20486;-72
2020/12/10 10:49:46;;;;;;;9.25;2.70;;;26.60;51.90;;;;;;5046094;28;20104;-72
2020/12/10 10:52:13;;;;;;;7.35;1.55;;;26.70;51.80;;;;;;5047027;28;20789;-72
2020/12/10 10:54:39;;;;;;;6.07;1.40;;;26.70;51.50;;;;;;5049975;28;20028;-72
2020/12/10 10:57:06;;;;;;;6.63;1.27;;;26.70;51.40;;;;;;5049414;28;20472;-73
2020/12/10 10:59:33;;;;;;;3.40;1.15;;;26.70;51.10;;;;;;5049912;28;20118;-72
2020/12/10 11:02:02;;;;;;;4.03;1.60;;;26.60;51.00;;;;;;5048008;28;20035;-72
2020/12/10 11:04:29;;;;;;;2.85;1.52;;;26.60;51.00;;;;;;5048555;28;20124;-72
2020/12/10 11:06:55;;;;;;;3.90;1.40;;;26.60;51.20;;;;;;5049488;28;20396;-72
2020/12/10 11:09:22;;;;;;;4.38;1.65;;;26.50;51.40;;;;;;5047412;28;20398;-72
2020/12/10 11:11:53;;;;;;;4.78;1.50;;;26.50;51.70;;;;;;5050164;28;20153;-72
2020/12/10 11:14:20;;;;;;;5.47;2.45;;;26.50;52.10;;;;;;5047701;28;20055;-72
2020/12/10 11:16:56;;;;;;;1.85;0.80;;;26.40;53.00;;;;;;5049868;28;20080;-72
2020/12/10 11:19:24;;;;;;;4.90;1.23;;;26.40;52.30;;;;;;5048450;28;20029;-72
2020/12/10 11:21:51;;;;;;;5.05;1.33;;;26.40;52.50;;;;;;5048817;28;20495;-72
2020/12/10 11:24:17;;;;;;;10.18;1.25;;;26.40;52.80;;;;;;5043943;28;20745;-72
2020/12/10 11:26:44;;;;;;;2.17;0.90;;;26.30;53.10;;;;;;5047402;28;20484;-72
2020/12/10 11:29:10;;;;;;;5.90;1.10;;;26.30;53.30;;;;;;5049630;28;20383;-73
2020/12/10 11:31:37;;;;;;;3.38;0.90;;;26.30;53.50;;;;;;5047180;28;20020;-72
2020/12/10 11:34:04;;;;;;;3.70;1.52;;;26.50;53.70;;;;;;5046771;28;20112;-73
2020/12/10 11:36:30;;;;;;;3.40;1.15;;;26.50;53.70;;;;;;5047950;28;20071;-72
2020/12/10 11:38:57;;;;;;;4.13;0.98;;;26.50;53.70;;;;;;5049089;28;20086;-72
2020/12/10 11:41:23;;;;;;;5.28;1.00;;;26.50;53.80;;;;;;5048224;28;20415;-72
2020/12/10 11:43:50;;;;;;;4.68;1.08;;;26.50;53.80;;;;;;5047204;28;20075;-72
2020/12/10 11:46:16;;;;;;;1.27;0.70;;;26.40;54.00;;;;;;5048563;28;20096;-72
2020/12/10 11:48:43;;;;;;;6.72;1.17;;;26.50;54.20;;;;;;5046689;28;20032;-72
2020/12/10 11:51:09;;;;;;;3.30;1.20;;;26.60;54.50;;;;;;5048607;28;20017;-72
2020/12/10 11:53:36;;;;;;;2.85;1.25;;;26.50;54.70;;;;;;5047265;28;20029;-74
2020/12/10 11:56:03;;;;;;;2.85;1.20;;;26.60;54.80;;;;;;5048338;28;20076;-72
2020/12/10 11:58:33;;;;;;;2.67;1.98;;;26.60;55.00;;;;;;5047038;28;20032;-73
2020/12/10 12:01:00;;;;;;;4.55;1.10;;;26.70;55.10;;;;;;5047745;28;20462;-72
2020/12/10 12:03:27;;;;;;;2.42;1.10;;;26.70;55.20;;;;;;5049294;28;20024;-72
2020/12/10 12:05:54;;;;;;;1.55;1.27;;;26.70;55.40;;;;;;5046956;28;20067;-72
2020/12/10 12:08:29;;;;;;;5.05;0.82;;;26.70;55.50;;;;;;5045761;28;20024;-72
2020/12/10 12:10:58;;;;;;;4.95;1.80;;;26.70;55.50;;;;;;5044998;28;20100;-72
2020/12/10 12:13:25;;;;;;;4.10;0.93;;;26.80;55.30;;;;;;5048331;28;20503;-72
2020/12/10 12:15:51;;;;;;;1.33;1.00;;;26.80;55.10;;;;;;5047786;28;20033;-72
2020/12/10 12:18:18;;;;;;;1.27;0.57;;;26.70;54.70;;;;;;5046793;28;20009;-72
2020/12/10 12:20:45;;;;;;;4.45;0.95;;;26.70;54.80;;;;;;5048481;28;20045;-72
2020/12/10 12:23:51;;;;;;;4.43;0.80;;;26.70;54.90;;;;;;5047460;28;20107;-72
2020/12/10 12:26:57;;;;;;;4.28;1.67;;;26.70;54.80;;;;;;5039514;28;20388;-75
2020/12/10 12:30:03;;;;;;;2.13;1.30;;;26.80;54.50;;;;;;5046671;28;20155;-73
2020/12/10 12:33:10;;;;;;;5.88;1.08;;;26.90;54.40;;;;;;5045749;28;20033;-72
2020/12/10 12:36:16;;;;;;;2.15;1.00;;;26.90;54.50;;;;;;5046217;28;20386;-72
2020/12/10 12:39:22;;;;;;;2.28;1.05;;;26.90;54.60;;;;;;5046431;28;20409;-74
2020/12/10 12:42:28;;;;;;;1.65;0.73;;;26.90;54.60;;;;;;5046737;28;20434;-73
2020/12/10 12:45:34;;;;;;;4.30;0.80;;;26.90;54.30;;;;;;5046483;28;20533;-74
2020/12/10 12:48:40;;;;;;;2.15;0.68;;;26.90;54.40;;;;;;5046181;28;20017;-73
2020/12/10 12:51:46;;;;;;;4.13;1.00;;;26.90;54.20;;;;;;5046998;28;20024;-72
2020/12/10 12:54:52;;;;;;;7.22;1.80;;;27.00;53.80;;;;;;5055932;28;20251;-72
2020/12/10 12:58:01;;;;;;;3.33;0.70;;;27.00;53.40;;;;;;5045844;28;20021;-73
2020/12/10 13:00:28;;;;;;;3.60;0.70;;;27.00;52.40;;;;;;5047933;28;20029;-73
2020/12/10 13:03:34;;;;;;;6.43;1.13;;;27.00;52.40;;;;;;5048114;28;20021;-74
2020/12/10 13:06:22;;;;;;;1.35;0.80;;;27.00;52.40;;;;;;5046299;28;20025;-73
2020/12/10 13:08:53;;;;;;;3.60;1.38;;;27.00;52.40;;;;;;5048022;28;20033;-73
2020/12/10 13:11:19;;;;;;;2.95;0.95;;;27.00;52.20;;;;;;5046000;28;20143;-73
2020/12/10 13:13:49;;;;;;;2.97;0.95;;;27.00;52.00;;;;;;5046004;28;20380;-73
2020/12/10 13:16:16;;;;;;;2.17;0.60;;;27.10;51.30;;;;;;5046521;28;20468;-74
2020/12/10 13:18:42;;;;;;;8.10;6.05;;;27.10;51.20;;;;;;5045688;28;20087;-72
2020/12/10 13:21:09;;;;;;;9.70;7.57;;;27.00;51.20;;;;;;5046491;28;20086;-73
2020/12/10 13:23:35;;;;;;;3.72;1.65;;;27.00;51.30;;;;;;5042426;28;20022;-73
2020/12/10 13:26:02;;;;;;;2.80;0.98;;;27.00;51.60;;;;;;5047428;28;20479;-73
2020/12/10 13:28:29;;;;;;;3.88;1.27;;;27.00;52.00;;;;;;5047758;28;20050;-73
2020/12/10 13:30:55;;;;;;;3.25;0.95;;;27.00;52.30;;;;;;5051650;28;20017;-73
2020/12/10 13:33:21;;;;;;;2.80;0.90;;;27.00;52.60;;;;;;5049079;28;20017;-73
2020/12/10 13:35:48;;;;;;;4.28;0.80;;;27.00;52.70;;;;;;5048111;28;20032;-73
2020/12/10 13:38:16;;;;;;;1.40;0.93;;;26.90;52.70;;;;;;5051649;28;20005;-72
2020/12/10 13:40:43;;;;;;;4.10;0.80;;;27.00;52.70;;;;;;5050394;28;20080;-74
2020/12/10 13:43:11;;;;;;;2.58;1.02;;;26.90;52.60;;;;;;5052062;28;20531;-73
2020/12/10 13:45:37;;;;;;;1.73;0.70;;;26.90;52.30;;;;;;5041302;28;20040;-73
2020/12/10 13:48:05;;;;;;;1.15;0.60;;;26.90;52.20;;;;;;5048610;28;20024;-73
2020/12/10 13:50:33;;;;;;;1.73;0.77;;;26.90;52.20;;;;;;5049192;28;20065;-73
2020/12/10 13:53:00;;;;;;;2.55;0.90;;;26.90;52.50;;;;;;5049314;28;20020;-72
2020/12/10 13:55:27;;;;;;;5.90;0.75;;;26.80;52.90;;;;;;5048464;28;20025;-72
2020/12/10 13:57:53;;;;;;;1.40;0.75;;;26.70;53.20;;;;;;5049929;28;20032;-72
2020/12/10 14:00:22;;;;;;;2.25;0.60;;;26.70;53.40;;;;;;5050753;28;20044;-72
2020/12/10 14:02:51;;;;;;;4.65;0.60;;;26.70;53.60;;;;;;5050268;28;20021;-72
2020/12/10 14:08:31;;;;;;;4.00;0.80;;;26.70;54.00;;;;;;5034906;28;20116;-73
2020/12/10 14:10:58;;;;;;;3.00;0.82;;;26.70;54.20;;;;;;5043270;28;20062;-73